Time,TemperatureF,DewpointF,PressureIn,WindDirection,WindDirectionDegrees,WindSpeedMPH,WindSpeedGustMPH,Humidity,HourlyPrecipIn,Conditions,Clouds,dailyrainin,SoftwareType,DateUTC
2013-08-19 05:52:00,58.0,54.0,30.07,North,0,0.0,0.0,85,0.00,,,0.00,,2013-08-19 10:52:00,
2013-08-19 06:22:00,58.0,54.0,30.08,North,0,0.0,0.0,85,0.00,,,0.00,,2013-08-19 11:22:00,
2013-08-19 06:52:00,58.0,54.0,30.08,West,270,0.0,9.0,86,0.00,,,0.00,,2013-08-19 11:52:00,
2013-08-19 07:21:00,58.0,54.0,30.07,West,270,0.0,3.0,86,0.00,,,0.00,,2013-08-19 12:21:00,
2013-08-19 07:52:00,59.0,55.0,30.07,North,0,0.0,0.0,86,0.00,,,0.00,,2013-08-19 12:52:00,
2013-08-19 08:22:00,64.0,59.0,30.06,North,0,0.0,0.0,85,0.00,,,0.00,,2013-08-19 13:22:00,
2013-08-19 08:52:00,65.0,59.0,30.07,SSE,156,0.0,2.0,80,0.00,,,0.00,,2013-08-19 13:52:00,
2013-08-19 09:21:00,66.0,59.0,30.07,SE,135,0.0,0.0,79,0.00,,,0.00,,2013-08-19 14:21:00,
2013-08-19 09:52:00,68.0,60.0,30.07,WSW,247,0.0,3.0,76,0.00,,,0.00,,2013-08-19 14:52:00,
2013-08-19 10:22:00,71.0,62.0,30.07,NW,313,0.0,4.0,72,0.00,,,0.00,,2013-08-19 15:22:00,
2013-08-19 10:54:00,74.0,63.0,30.08,West,281,0.0,6.0,68,0.00,,,0.00,,2013-08-19 15:54:00,
2013-08-19 11:23:00,76.0,63.0,30.07,NW,305,1.0,5.0,64,0.00,,,0.00,,2013-08-19 16:23:00,
2013-08-19 12:30:00,77.0,-99.9,30.06,SSW,199,0.0,4.0,62,0.00,,,0.00,,2013-08-19 17:30:00,
2013-08-19 12:57:00,78.0,62.0,30.05,West,277,1.0,5.0,59,0.00,,,0.00,,2013-08-19 17:57:00,
2013-08-19 13:28:00,80.0,63.0,30.03,South,184,1.0,4.0,57,0.00,,,0.00,,2013-08-19 18:28:00,
2013-08-19 13:50:00,-999.0,-99.9,30.02,SSW,202,2.0,9.0,52,0.00,,,0.00,,2013-08-19 18:50:00,
2013-08-19 14:00:00,-999.0,-99.9,30.02,SSW,202,2.0,9.0,52,0.00,,,0.00,,2013-08-19 19:00:00,
2013-08-19 14:30:00,-999.0,-99.9,30.03,SSE,152,2.0,4.0,51,0.00,,,0.00,,2013-08-19 19:30:00,
2013-08-19 14:59:00,82.0,62.0,30.02,West,274,0.0,3.0,51,0.57,,,0.00,,2013-08-19 19:59:00,
2013-08-19 15:30:00,83.0,62.0,30.03,South,178,1.0,5.0,50,0.57,,,0.00,,2013-08-19 20:30:00,
2013-08-19 16:00:00,-999.0,-99.9,30.02,South,187,1.0,4.0,-999,-99.99,,,-99.99,,2013-08-19 21:00:00,
2013-08-19 16:25:00,82.0,62.0,30.01,SSE,162,0.0,4.0,51,0.00,,,0.00,,2013-08-19 21:25:00,
2013-08-19 16:54:00,83.0,64.0,30.02,South,184,1.0,4.0,52,0.00,,,0.00,,2013-08-19 21:54:00,
2013-08-19 17:25:00,82.0,63.0,30.01,WNW,292,0.0,2.0,53,0.00,,,0.00,,2013-08-19 22:25:00,
2013-08-19 17:54:00,82.0,64.0,30.01,SW,231,0.0,3.0,55,0.00,,,0.00,,2013-08-19 22:54:00,
2013-08-19 18:25:00,82.0,64.0,30.00,SW,223,0.0,4.0,55,0.00,,,0.00,,2013-08-19 23:25:00,
2013-08-19 18:55:00,81.0,64.0,30.00,NW,311,0.0,4.0,56,0.00,,,0.00,,2013-08-19 23:55:00,
2013-08-19 19:23:00,80.0,63.0,30.00,West,270,0.0,2.0,57,0.00,,,0.00,,2013-08-20 00:23:00,
2013-08-19 19:52:00,79.0,63.0,29.99,North,0,0.0,0.0,59,0.00,,,0.00,,2013-08-20 00:52:00,
2013-08-19 20:22:00,77.0,63.0,30.00,North,0,0.0,0.0,62,0.00,,,0.00,,2013-08-20 01:22:00,
2013-08-19 20:42:00,76.0,62.0,30.00,North,0,0.0,0.0,63,0.00,,,0.00,,2013-08-20 01:42:00,
2013-08-19 20:52:00,75.0,62.0,30.00,North,0,0.0,0.0,65,0.00,,,0.00,,2013-08-20 01:52:00,
2013-08-19 21:21:00,74.0,62.0,30.01,North,0,0.0,0.0,67,0.00,,,0.00,,2013-08-20 02:21:00,
2013-08-19 21:52:00,73.0,62.0,30.01,North,0,0.0,0.0,69,0.00,,,0.00,,2013-08-20 02:52:00,
2013-08-19 22:22:00,72.0,62.0,30.01,North,0,0.0,0.0,71,0.00,,,0.00,,2013-08-20 03:22:00,
2013-08-19 22:42:00,71.0,62.0,30.01,North,0,0.0,0.0,73,0.00,,,0.00,,2013-08-20 03:42:00,
2013-08-19 22:54:00,71.0,62.0,30.01,North,0,0.0,0.0,72,0.00,,,0.00,,2013-08-20 03:54:00,
2013-08-19 23:13:00,71.0,62.0,30.01,North,0,0.0,0.0,73,0.00,,,0.00,,2013-08-20 04:13:00,
2013-08-19 23:23:00,71.0,62.0,30.01,North,0,0.0,0.0,73,0.00,,,0.00,,2013-08-20 04:23:00,
2013-08-19 23:33:00,71.0,62.0,30.01,North,0,0.0,0.0,73,0.00,,,0.00,,2013-08-20 04:33:00,